sensor_id;sensor_type;location;lat;lon;timestamp;temperature;humidity
17697;DHT22;8967;47.984;7.842;2023-05-24T00:00:03;16.80;93.00
17697;DHT22;8967;47.984;7.842;2023-05-24T00:02:34;16.80;93.10
17697;DHT22;8967;47.984;7.842;2023-05-24T00:05:05;16.80;93.00
17697;DHT22;8967;47.984;7.842;2023-05-24T00:07:32;16.90;93.00
17697;DHT22;8967;47.984;7.842;2023-05-24T00:10:00;16.90;92.90
17697;DHT22;8967;47.984;7.842;2023-05-24T00:12:27;16.80;92.80
17697;DHT22;8967;47.984;7.842;2023-05-24T00:14:54;16.80;92.60
17697;DHT22;8967;47.984;7.842;2023-05-24T00:17:21;16.80;92.80
17697;DHT22;8967;47.984;7.842;2023-05-24T00:19:51;16.80;92.90
17697;DHT22;8967;47.984;7.842;2023-05-24T00:22:18;16.80;92.70
17697;DHT22;8967;47.984;7.842;2023-05-24T00:24:46;16.80;92.80
17697;DHT22;8967;47.984;7.842;2023-05-24T00:27:14;16.80;92.60
17697;DHT22;8967;47.984;7.842;2023-05-24T00:29:41;16.90;92.50
17697;DHT22;8967;47.984;7.842;2023-05-24T00:32:10;16.80;92.40
17697;DHT22;8967;47.984;7.842;2023-05-24T00:34:37;16.80;92.20
17697;DHT22;8967;47.984;7.842;2023-05-24T00:37:04;16.80;92.20
17697;DHT22;8967;47.984;7.842;2023-05-24T00:39:31;16.80;92.00
17697;DHT22;8967;47.984;7.842;2023-05-24T00:41:58;16.70;91.90
17697;DHT22;8967;47.984;7.842;2023-05-24T00:44:27;16.70;91.80
17697;DHT22;8967;47.984;7.842;2023-05-24T00:46:54;16.60;91.70
17697;DHT22;8967;47.984;7.842;2023-05-24T00:49:22;16.50;91.30
17697;DHT22;8967;47.984;7.842;2023-05-24T00:51:49;16.50;91.70
17697;DHT22;8967;47.984;7.842;2023-05-24T00:54:17;16.50;92.30
17697;DHT22;8967;47.984;7.842;2023-05-24T00:56:45;16.50;91.80
17697;DHT22;8967;47.984;7.842;2023-05-24T00:59:13;16.50;91.80
17697;DHT22;8967;47.984;7.842;2023-05-24T01:01:45;16.50;91.90
17697;DHT22;8967;47.984;7.842;2023-05-24T01:04:13;16.40;91.70
17697;DHT22;8967;47.984;7.842;2023-05-24T01:06:50;16.40;92.00
17697;DHT22;8967;47.984;7.842;2023-05-24T01:09:28;16.40;92.00
17697;DHT22;8967;47.984;7.842;2023-05-24T01:12:06;16.40;91.90
17697;DHT22;8967;47.984;7.842;2023-05-24T01:14:47;16.40;91.90
17697;DHT22;8967;47.984;7.842;2023-05-24T01:17:22;16.30;91.70
17697;DHT22;8967;47.984;7.842;2023-05-24T01:19:55;16.30;91.70
17697;DHT22;8967;47.984;7.842;2023-05-24T01:22:46;16.30;92.00
17697;DHT22;8967;47.984;7.842;2023-05-24T01:25:26;16.20;92.30
17697;DHT22;8967;47.984;7.842;2023-05-24T01:27:57;16.20;92.00
17697;DHT22;8967;47.984;7.842;2023-05-24T01:30:26;16.20;92.00
17697;DHT22;8967;47.984;7.842;2023-05-24T01:32:55;16.20;92.10
17697;DHT22;8967;47.984;7.842;2023-05-24T01:35:22;16.20;91.80
17697;DHT22;8967;47.984;7.842;2023-05-24T01:37:49;16.10;91.80
17697;DHT22;8967;47.984;7.842;2023-05-24T01:40:16;16.10;92.00
17697;DHT22;8967;47.984;7.842;2023-05-24T01:42:45;16.10;92.00
17697;DHT22;8967;47.984;7.842;2023-05-24T01:45:22;16.00;92.10
17697;DHT22;8967;47.984;7.842;2023-05-24T01:48:01;16.10;92.20
17697;DHT22;8967;47.984;7.842;2023-05-24T01:50:32;16.10;92.30
17697;DHT22;8967;47.984;7.842;2023-05-24T01:53:03;16.00;92.10
17697;DHT22;8967;47.984;7.842;2023-05-24T01:55:35;16.00;92.20
17697;DHT22;8967;47.984;7.842;2023-05-24T01:58:06;16.00;92.40
17697;DHT22;8967;47.984;7.842;2023-05-24T02:00:35;16.00;92.40
17697;DHT22;8967;47.984;7.842;2023-05-24T02:03:07;16.00;92.40
17697;DHT22;8967;47.984;7.842;2023-05-24T02:05:37;16.00;92.60
17697;DHT22;8967;47.984;7.842;2023-05-24T02:08:07;16.00;92.30
17697;DHT22;8967;47.984;7.842;2023-05-24T02:10:37;16.00;92.50
17697;DHT22;8967;47.984;7.842;2023-05-24T02:13:04;15.90;92.40
17697;DHT22;8967;47.984;7.842;2023-05-24T02:15:32;16.00;92.70
17697;DHT22;8967;47.984;7.842;2023-05-24T02:18:04;16.00;92.80
17697;DHT22;8967;47.984;7.842;2023-05-24T02:20:34;16.00;92.60
17697;DHT22;8967;47.984;7.842;2023-05-24T02:23:02;16.00;92.40
17697;DHT22;8967;47.984;7.842;2023-05-24T02:25:29;16.00;92.60
17697;DHT22;8967;47.984;7.842;2023-05-24T02:27:57;16.00;92.50
17697;DHT22;8967;47.984;7.842;2023-05-24T02:30:24;16.10;92.50
17697;DHT22;8967;47.984;7.842;2023-05-24T02:32:51;16.00;92.30
17697;DHT22;8967;47.984;7.842;2023-05-24T02:35:19;16.00;92.50
17697;DHT22;8967;47.984;7.842;2023-05-24T02:37:46;16.00;92.50
17697;DHT22;8967;47.984;7.842;2023-05-24T02:40:13;16.00;92.60
17697;DHT22;8967;47.984;7.842;2023-05-24T02:42:40;16.00;92.50
17697;DHT22;8967;47.984;7.842;2023-05-24T02:45:07;16.00;92.60
17697;DHT22;8967;47.984;7.842;2023-05-24T02:47:34;16.10;92.50
17697;DHT22;8967;47.984;7.842;2023-05-24T02:50:01;16.10;92.20
17697;DHT22;8967;47.984;7.842;2023-05-24T02:52:30;16.10;92.30
17697;DHT22;8967;47.984;7.842;2023-05-24T02:54:57;16.00;92.10
17697;DHT22;8967;47.984;7.842;2023-05-24T02:57:25;16.00;92.30
17697;DHT22;8967;47.984;7.842;2023-05-24T02:59:55;16.00;92.40
17697;DHT22;8967;47.984;7.842;2023-05-24T03:02:22;16.00;92.40
17697;DHT22;8967;47.984;7.842;2023-05-24T03:04:51;15.90;92.10
17697;DHT22;8967;47.984;7.842;2023-05-24T03:07:17;15.90;92.10
17697;DHT22;8967;47.984;7.842;2023-05-24T03:09:46;15.80;92.30
17697;DHT22;8967;47.984;7.842;2023-05-24T03:12:13;15.80;92.30
17697;DHT22;8967;47.984;7.842;2023-05-24T03:14:40;15.80;92.30
17697;DHT22;8967;47.984;7.842;2023-05-24T03:17:07;15.70;92.10
17697;DHT22;8967;47.984;7.842;2023-05-24T03:19:34;15.70;92.40
17697;DHT22;8967;47.984;7.842;2023-05-24T03:22:01;15.60;92.30
17697;DHT22;8967;47.984;7.842;2023-05-24T03:24:28;15.60;92.60
17697;DHT22;8967;47.984;7.842;2023-05-24T03:26:57;15.60;92.60
17697;DHT22;8967;47.984;7.842;2023-05-24T03:29:24;15.60;92.60
17697;DHT22;8967;47.984;7.842;2023-05-24T03:31:54;15.50;92.30
17697;DHT22;8967;47.984;7.842;2023-05-24T03:34:24;15.40;92.40
17697;DHT22;8967;47.984;7.842;2023-05-24T03:36:51;15.40;92.50
17697;DHT22;8967;47.984;7.842;2023-05-24T03:39:21;15.40;92.70
17697;DHT22;8967;47.984;7.842;2023-05-24T03:41:54;15.30;92.60
17697;DHT22;8967;47.984;7.842;2023-05-24T03:44:25;15.30;92.80
17697;DHT22;8967;47.984;7.842;2023-05-24T03:46:52;15.30;93.10
17697;DHT22;8967;47.984;7.842;2023-05-24T03:49:18;15.30;93.00
17697;DHT22;8967;47.984;7.842;2023-05-24T03:51:46;15.30;92.90
17697;DHT22;8967;47.984;7.842;2023-05-24T03:54:12;15.20;92.70
17697;DHT22;8967;47.984;7.842;2023-05-24T03:56:41;15.20;92.90
17697;DHT22;8967;47.984;7.842;2023-05-24T03:59:07;15.20;93.00
17697;DHT22;8967;47.984;7.842;2023-05-24T04:01:38;15.20;93.00
17697;DHT22;8967;47.984;7.842;2023-05-24T04:04:07;15.10;93.00
17697;DHT22;8967;47.984;7.842;2023-05-24T04:06:35;15.10;93.10
17697;DHT22;8967;47.984;7.842;2023-05-24T04:09:02;15.10;93.00
17697;DHT22;8967;47.984;7.842;2023-05-24T04:11:30;15.10;93.10
17697;DHT22;8967;47.984;7.842;2023-05-24T04:13:59;15.10;93.00
17697;DHT22;8967;47.984;7.842;2023-05-24T04:16:29;15.10;93.20
17697;DHT22;8967;47.984;7.842;2023-05-24T04:19:05;15.10;93.30
17697;DHT22;8967;47.984;7.842;2023-05-24T04:21:34;15.10;93.00
17697;DHT22;8967;47.984;7.842;2023-05-24T04:24:01;15.10;93.30
17697;DHT22;8967;47.984;7.842;2023-05-24T04:26:29;15.10;93.30
17697;DHT22;8967;47.984;7.842;2023-05-24T04:28:57;15.10;93.10
17697;DHT22;8967;47.984;7.842;2023-05-24T04:31:24;15.10;93.40
17697;DHT22;8967;47.984;7.842;2023-05-24T04:33:55;15.10;93.30
17697;DHT22;8967;47.984;7.842;2023-05-24T04:36:24;15.10;93.70
17697;DHT22;8967;47.984;7.842;2023-05-24T04:38:53;15.10;93.40
17697;DHT22;8967;47.984;7.842;2023-05-24T04:41:21;15.10;93.10
17697;DHT22;8967;47.984;7.842;2023-05-24T04:43:51;15.00;93.20
17697;DHT22;8967;47.984;7.842;2023-05-24T04:46:17;15.00;93.50
17697;DHT22;8967;47.984;7.842;2023-05-24T04:48:44;15.00;93.30
17697;DHT22;8967;47.984;7.842;2023-05-24T04:51:11;15.00;93.40
17697;DHT22;8967;47.984;7.842;2023-05-24T04:53:39;15.00;93.90
17697;DHT22;8967;47.984;7.842;2023-05-24T04:56:07;15.00;93.40
17697;DHT22;8967;47.984;7.842;2023-05-24T04:58:36;15.00;93.80
17697;DHT22;8967;47.984;7.842;2023-05-24T05:01:03;15.00;93.80
17697;DHT22;8967;47.984;7.842;2023-05-24T05:03:30;15.10;93.70
17697;DHT22;8967;47.984;7.842;2023-05-24T05:05:57;15.10;93.80
17697;DHT22;8967;47.984;7.842;2023-05-24T05:08:24;15.10;93.80
17697;DHT22;8967;47.984;7.842;2023-05-24T05:10:52;15.10;93.50
17697;DHT22;8967;47.984;7.842;2023-05-24T05:13:19;15.20;93.70
17697;DHT22;8967;47.984;7.842;2023-05-24T05:15:46;15.20;93.70
17697;DHT22;8967;47.984;7.842;2023-05-24T05:18:13;15.20;94.00
17697;DHT22;8967;47.984;7.842;2023-05-24T05:20:40;15.20;93.80
17697;DHT22;8967;47.984;7.842;2023-05-24T05:23:07;15.30;93.80
17697;DHT22;8967;47.984;7.842;2023-05-24T05:25:34;15.30;93.80
17697;DHT22;8967;47.984;7.842;2023-05-24T05:28:02;15.30;93.90
17697;DHT22;8967;47.984;7.842;2023-05-24T05:30:29;15.20;94.00
17697;DHT22;8967;47.984;7.842;2023-05-24T05:32:58;15.20;94.10
17697;DHT22;8967;47.984;7.842;2023-05-24T05:35:26;15.20;94.00
17697;DHT22;8967;47.984;7.842;2023-05-24T05:37:52;15.20;94.30
17697;DHT22;8967;47.984;7.842;2023-05-24T05:40:19;15.20;94.40
17697;DHT22;8967;47.984;7.842;2023-05-24T05:42:46;15.20;94.30
17697;DHT22;8967;47.984;7.842;2023-05-24T05:45:15;15.20;94.10
17697;DHT22;8967;47.984;7.842;2023-05-24T05:47:42;15.20;94.30
17697;DHT22;8967;47.984;7.842;2023-05-24T05:50:12;15.20;94.50
17697;DHT22;8967;47.984;7.842;2023-05-24T05:52:38;15.20;94.30
17697;DHT22;8967;47.984;7.842;2023-05-24T05:55:07;15.20;94.40
17697;DHT22;8967;47.984;7.842;2023-05-24T05:57:34;15.20;94.30
17697;DHT22;8967;47.984;7.842;2023-05-24T06:00:01;15.20;94.50
17697;DHT22;8967;47.984;7.842;2023-05-24T06:02:39;15.20;94.50
17697;DHT22;8967;47.984;7.842;2023-05-24T06:05:06;15.20;94.30
17697;DHT22;8967;47.984;7.842;2023-05-24T06:07:33;15.20;94.50
17697;DHT22;8967;47.984;7.842;2023-05-24T06:10:02;15.20;94.50
17697;DHT22;8967;47.984;7.842;2023-05-24T06:12:28;15.20;94.40
17697;DHT22;8967;47.984;7.842;2023-05-24T06:14:55;15.20;94.50
17697;DHT22;8967;47.984;7.842;2023-05-24T06:17:23;15.20;94.60
17697;DHT22;8967;47.984;7.842;2023-05-24T06:19:54;15.30;94.70
17697;DHT22;8967;47.984;7.842;2023-05-24T06:22:21;15.30;94.50
17697;DHT22;8967;47.984;7.842;2023-05-24T06:24:48;15.30;94.40
17697;DHT22;8967;47.984;7.842;2023-05-24T06:27:14;15.30;94.60
17697;DHT22;8967;47.984;7.842;2023-05-24T06:29:41;15.30;94.50
17697;DHT22;8967;47.984;7.842;2023-05-24T06:32:08;15.30;94.40
17697;DHT22;8967;47.984;7.842;2023-05-24T06:34:37;15.20;94.30
17697;DHT22;8967;47.984;7.842;2023-05-24T06:37:08;15.20;94.40
17697;DHT22;8967;47.984;7.842;2023-05-24T06:39:39;15.20;94.40
17697;DHT22;8967;47.984;7.842;2023-05-24T06:42:06;15.20;94.50
17697;DHT22;8967;47.984;7.842;2023-05-24T06:44:35;15.20;94.30
17697;DHT22;8967;47.984;7.842;2023-05-24T06:47:02;15.20;94.40
17697;DHT22;8967;47.984;7.842;2023-05-24T06:49:30;15.30;94.40
17697;DHT22;8967;47.984;7.842;2023-05-24T06:51:57;15.30;93.90
17697;DHT22;8967;47.984;7.842;2023-05-24T06:54:25;15.30;94.00
17697;DHT22;8967;47.984;7.842;2023-05-24T06:56:52;15.30;94.20
17697;DHT22;8967;47.984;7.842;2023-05-24T06:59:19;15.30;94.30
17697;DHT22;8967;47.984;7.842;2023-05-24T07:01:45;15.30;94.10
17697;DHT22;8967;47.984;7.842;2023-05-24T07:04:16;15.20;94.10
17697;DHT22;8967;47.984;7.842;2023-05-24T07:06:42;15.20;94.20
17697;DHT22;8967;47.984;7.842;2023-05-24T07:09:12;15.20;94.30
17697;DHT22;8967;47.984;7.842;2023-05-24T07:11:43;15.20;94.10
17697;DHT22;8967;47.984;7.842;2023-05-24T07:14:09;15.20;94.30
17697;DHT22;8967;47.984;7.842;2023-05-24T07:16:37;15.20;94.30
17697;DHT22;8967;47.984;7.842;2023-05-24T07:19:03;15.20;94.20
17697;DHT22;8967;47.984;7.842;2023-05-24T07:21:31;15.30;94.40
17697;DHT22;8967;47.984;7.842;2023-05-24T07:23:58;15.30;94.40
17697;DHT22;8967;47.984;7.842;2023-05-24T07:26:25;15.30;94.20
17697;DHT22;8967;47.984;7.842;2023-05-24T07:28:53;15.30;94.00
17697;DHT22;8967;47.984;7.842;2023-05-24T07:31:20;15.30;94.20
17697;DHT22;8967;47.984;7.842;2023-05-24T07:33:47;15.30;93.80
17697;DHT22;8967;47.984;7.842;2023-05-24T07:36:14;15.30;94.00
17697;DHT22;8967;47.984;7.842;2023-05-24T07:38:41;15.30;93.90
17697;DHT22;8967;47.984;7.842;2023-05-24T07:41:09;15.20;93.90
17697;DHT22;8967;47.984;7.842;2023-05-24T07:43:36;15.20;93.70
17697;DHT22;8967;47.984;7.842;2023-05-24T07:46:07;15.20;93.70
17697;DHT22;8967;47.984;7.842;2023-05-24T07:48:34;15.20;93.40
17697;DHT22;8967;47.984;7.842;2023-05-24T07:51:02;15.10;93.70
17697;DHT22;8967;47.984;7.842;2023-05-24T07:53:29;15.10;93.50
17697;DHT22;8967;47.984;7.842;2023-05-24T07:55:56;15.10;93.40
17697;DHT22;8967;47.984;7.842;2023-05-24T07:58:22;15.10;93.50
17697;DHT22;8967;47.984;7.842;2023-05-24T08:00:51;15.10;93.50
17697;DHT22;8967;47.984;7.842;2023-05-24T08:03:20;15.10;93.50
17697;DHT22;8967;47.984;7.842;2023-05-24T08:05:50;15.10;93.60
17697;DHT22;8967;47.984;7.842;2023-05-24T08:08:17;15.20;93.60
17697;DHT22;8967;47.984;7.842;2023-05-24T08:10:44;15.10;93.40
17697;DHT22;8967;47.984;7.842;2023-05-24T08:13:13;15.10;93.30
17697;DHT22;8967;47.984;7.842;2023-05-24T08:15:40;15.10;93.30
17697;DHT22;8967;47.984;7.842;2023-05-24T08:18:07;15.10;93.50
17697;DHT22;8967;47.984;7.842;2023-05-24T08:20:35;15.10;93.30
17697;DHT22;8967;47.984;7.842;2023-05-24T08:23:03;15.10;93.30
17697;DHT22;8967;47.984;7.842;2023-05-24T08:25:29;15.10;93.40
17697;DHT22;8967;47.984;7.842;2023-05-24T08:27:59;15.10;93.50
17697;DHT22;8967;47.984;7.842;2023-05-24T08:30:26;15.10;93.50
17697;DHT22;8967;47.984;7.842;2023-05-24T08:32:55;15.10;93.70
17697;DHT22;8967;47.984;7.842;2023-05-24T08:35:23;15.10;93.80
17697;DHT22;8967;47.984;7.842;2023-05-24T08:37:51;15.10;93.60
17697;DHT22;8967;47.984;7.842;2023-05-24T08:40:19;15.10;93.60
17697;DHT22;8967;47.984;7.842;2023-05-24T08:42:49;15.10;93.80
17697;DHT22;8967;47.984;7.842;2023-05-24T08:45:17;15.20;94.00
17697;DHT22;8967;47.984;7.842;2023-05-24T08:47:45;15.20;93.90
17697;DHT22;8967;47.984;7.842;2023-05-24T08:50:13;15.30;93.80
17697;DHT22;8967;47.984;7.842;2023-05-24T08:52:41;15.30;93.70
17697;DHT22;8967;47.984;7.842;2023-05-24T08:55:11;15.30;93.70
17697;DHT22;8967;47.984;7.842;2023-05-24T08:57:38;15.30;93.50
17697;DHT22;8967;47.984;7.842;2023-05-24T09:00:07;15.30;93.80
17697;DHT22;8967;47.984;7.842;2023-05-24T09:02:37;15.40;93.90
17697;DHT22;8967;47.984;7.842;2023-05-24T09:05:09;15.40;93.80
17697;DHT22;8967;47.984;7.842;2023-05-24T09:07:37;15.50;93.60
17697;DHT22;8967;47.984;7.842;2023-05-24T09:10:05;15.40;93.60
17697;DHT22;8967;47.984;7.842;2023-05-24T09:12:35;15.50;93.80
17697;DHT22;8967;47.984;7.842;2023-05-24T09:15:04;15.50;93.70
17697;DHT22;8967;47.984;7.842;2023-05-24T09:17:31;15.50;93.60
17697;DHT22;8967;47.984;7.842;2023-05-24T09:19:58;15.50;93.30
17697;DHT22;8967;47.984;7.842;2023-05-24T09:22:28;15.50;93.50
17697;DHT22;8967;47.984;7.842;2023-05-24T09:24:57;15.50;93.50
17697;DHT22;8967;47.984;7.842;2023-05-24T09:27:24;15.40;92.90
17697;DHT22;8967;47.984;7.842;2023-05-24T09:29:52;15.40;93.30
17697;DHT22;8967;47.984;7.842;2023-05-24T09:32:21;15.50;93.30
17697;DHT22;8967;47.984;7.842;2023-05-24T09:34:50;15.50;93.30
17697;DHT22;8967;47.984;7.842;2023-05-24T09:37:20;15.50;92.90
17697;DHT22;8967;47.984;7.842;2023-05-24T09:39:50;15.40;92.70
17697;DHT22;8967;47.984;7.842;2023-05-24T09:42:17;15.40;93.10
17697;DHT22;8967;47.984;7.842;2023-05-24T09:44:47;15.40;93.00
17697;DHT22;8967;47.984;7.842;2023-05-24T09:47:15;15.40;93.00
17697;DHT22;8967;47.984;7.842;2023-05-24T09:49:42;15.40;93.20
17697;DHT22;8967;47.984;7.842;2023-05-24T09:52:12;15.40;93.20
17697;DHT22;8967;47.984;7.842;2023-05-24T09:54:39;15.40;93.10
17697;DHT22;8967;47.984;7.842;2023-05-24T09:57:07;15.40;93.10
17697;DHT22;8967;47.984;7.842;2023-05-24T09:59:39;15.50;93.20
17697;DHT22;8967;47.984;7.842;2023-05-24T10:02:08;15.50;93.20
17697;DHT22;8967;47.984;7.842;2023-05-24T10:04:40;15.50;93.40
17697;DHT22;8967;47.984;7.842;2023-05-24T10:07:09;15.50;93.10
17697;DHT22;8967;47.984;7.842;2023-05-24T10:09:40;15.50;93.50
17697;DHT22;8967;47.984;7.842;2023-05-24T10:12:07;15.50;93.40
17697;DHT22;8967;47.984;7.842;2023-05-24T10:14:36;15.60;93.50
17697;DHT22;8967;47.984;7.842;2023-05-24T10:17:03;15.60;93.60
17697;DHT22;8967;47.984;7.842;2023-05-24T10:19:30;15.60;93.80
17697;DHT22;8967;47.984;7.842;2023-05-24T10:21:59;15.70;93.80
17697;DHT22;8967;47.984;7.842;2023-05-24T10:24:32;15.60;93.50
17697;DHT22;8967;47.984;7.842;2023-05-24T10:27:04;15.60;93.10
17697;DHT22;8967;47.984;7.842;2023-05-24T10:29:43;15.60;93.60
17697;DHT22;8967;47.984;7.842;2023-05-24T10:32:14;15.60;93.40
17697;DHT22;8967;47.984;7.842;2023-05-24T10:34:43;15.60;93.40
17697;DHT22;8967;47.984;7.842;2023-05-24T10:37:12;15.70;93.80
17697;DHT22;8967;47.984;7.842;2023-05-24T10:39:42;15.70;93.90
17697;DHT22;8967;47.984;7.842;2023-05-24T10:42:09;15.80;93.60
17697;DHT22;8967;47.984;7.842;2023-05-24T10:44:37;15.80;93.50
17697;DHT22;8967;47.984;7.842;2023-05-24T10:47:08;15.80;93.50
17697;DHT22;8967;47.984;7.842;2023-05-24T10:49:37;15.90;93.50
17697;DHT22;8967;47.984;7.842;2023-05-24T10:52:07;15.90;93.30
17697;DHT22;8967;47.984;7.842;2023-05-24T10:54:36;16.00;93.40
17697;DHT22;8967;47.984;7.842;2023-05-24T10:57:05;16.00;93.60
17697;DHT22;8967;47.984;7.842;2023-05-24T10:59:33;16.00;93.30
17697;DHT22;8967;47.984;7.842;2023-05-24T11:02:03;16.10;93.40
17697;DHT22;8967;47.984;7.842;2023-05-24T11:04:32;16.10;93.40
17697;DHT22;8967;47.984;7.842;2023-05-24T11:07:03;16.10;93.40
17697;DHT22;8967;47.984;7.842;2023-05-24T11:09:31;16.20;93.30
17697;DHT22;8967;47.984;7.842;2023-05-24T11:12:02;16.20;93.30
17697;DHT22;8967;47.984;7.842;2023-05-24T11:14:35;16.30;93.30
17697;DHT22;8967;47.984;7.842;2023-05-24T11:17:02;16.30;93.10
17697;DHT22;8967;47.984;7.842;2023-05-24T11:19:36;16.30;93.10
17697;DHT22;8967;47.984;7.842;2023-05-24T11:22:07;16.30;92.70
17697;DHT22;8967;47.984;7.842;2023-05-24T11:24:34;16.40;93.00
17697;DHT22;8967;47.984;7.842;2023-05-24T11:27:03;16.40;92.70
17697;DHT22;8967;47.984;7.842;2023-05-24T11:29:30;16.40;92.80
17697;DHT22;8967;47.984;7.842;2023-05-24T11:31:58;16.40;92.70
17697;DHT22;8967;47.984;7.842;2023-05-24T11:34:29;16.40;92.70
17697;DHT22;8967;47.984;7.842;2023-05-24T11:36:57;16.50;92.60
17697;DHT22;8967;47.984;7.842;2023-05-24T11:39:28;16.50;92.60
17697;DHT22;8967;47.984;7.842;2023-05-24T11:41:55;16.50;92.50
17697;DHT22;8967;47.984;7.842;2023-05-24T11:44:24;16.60;92.60
17697;DHT22;8967;47.984;7.842;2023-05-24T11:46:56;16.60;92.30
17697;DHT22;8967;47.984;7.842;2023-05-24T11:49:26;16.60;92.50
17697;DHT22;8967;47.984;7.842;2023-05-24T11:51:54;16.60;92.40
17697;DHT22;8967;47.984;7.842;2023-05-24T11:54:21;16.60;92.50
17697;DHT22;8967;47.984;7.842;2023-05-24T11:56:48;16.60;92.50
17697;DHT22;8967;47.984;7.842;2023-05-24T11:59:22;16.60;92.30
17697;DHT22;8967;47.984;7.842;2023-05-24T12:01:56;16.70;92.30
17697;DHT22;8967;47.984;7.842;2023-05-24T12:04:24;16.70;92.40
17697;DHT22;8967;47.984;7.842;2023-05-24T12:06:52;16.70;92.50
17697;DHT22;8967;47.984;7.842;2023-05-24T12:09:20;16.70;92.30
17697;DHT22;8967;47.984;7.842;2023-05-24T12:11:48;16.80;92.20
17697;DHT22;8967;47.984;7.842;2023-05-24T12:14:16;16.80;92.20
17697;DHT22;8967;47.984;7.842;2023-05-24T12:16:44;16.80;92.00
17697;DHT22;8967;47.984;7.842;2023-05-24T12:19:15;16.90;91.80
17697;DHT22;8967;47.984;7.842;2023-05-24T12:21:43;16.90;92.10
17697;DHT22;8967;47.984;7.842;2023-05-24T12:24:10;16.90;91.80
17697;DHT22;8967;47.984;7.842;2023-05-24T12:26:40;16.90;91.60
17697;DHT22;8967;47.984;7.842;2023-05-24T12:29:08;17.00;91.60
17697;DHT22;8967;47.984;7.842;2023-05-24T12:31:38;17.00;91.50
17697;DHT22;8967;47.984;7.842;2023-05-24T12:34:05;17.00;91.30
17697;DHT22;8967;47.984;7.842;2023-05-24T12:36:33;17.00;91.30
17697;DHT22;8967;47.984;7.842;2023-05-24T12:39:15;17.00;91.50
17697;DHT22;8967;47.984;7.842;2023-05-24T12:41:43;17.00;91.40
17697;DHT22;8967;47.984;7.842;2023-05-24T12:44:10;17.10;91.30
17697;DHT22;8967;47.984;7.842;2023-05-24T12:46:39;17.10;91.30
17697;DHT22;8967;47.984;7.842;2023-05-24T12:49:06;17.10;91.30
17697;DHT22;8967;47.984;7.842;2023-05-24T12:51:34;17.20;91.40
17697;DHT22;8967;47.984;7.842;2023-05-24T12:54:02;17.20;91.20
17697;DHT22;8967;47.984;7.842;2023-05-24T12:56:35;17.20;91.00
17697;DHT22;8967;47.984;7.842;2023-05-24T12:59:03;17.20;91.10
17697;DHT22;8967;47.984;7.842;2023-05-24T13:01:30;17.30;91.00
17697;DHT22;8967;47.984;7.842;2023-05-24T13:03:59;17.30;91.10
17697;DHT22;8967;47.984;7.842;2023-05-24T13:06:26;17.30;91.00
17697;DHT22;8967;47.984;7.842;2023-05-24T13:08:54;17.40;90.80
17697;DHT22;8967;47.984;7.842;2023-05-24T13:11:21;17.40;90.90
17697;DHT22;8967;47.984;7.842;2023-05-24T13:13:49;17.40;90.90
17697;DHT22;8967;47.984;7.842;2023-05-24T13:16:16;17.40;90.70
17697;DHT22;8967;47.984;7.842;2023-05-24T13:18:44;17.40;90.80
17697;DHT22;8967;47.984;7.842;2023-05-24T13:21:11;17.40;91.30
17697;DHT22;8967;47.984;7.842;2023-05-24T13:23:38;17.50;91.10
17697;DHT22;8967;47.984;7.842;2023-05-24T13:26:09;17.50;91.00
17697;DHT22;8967;47.984;7.842;2023-05-24T13:28:38;17.50;90.90
17697;DHT22;8967;47.984;7.842;2023-05-24T13:31:05;17.50;90.80
17697;DHT22;8967;47.984;7.842;2023-05-24T13:33:32;17.60;90.80
17697;DHT22;8967;47.984;7.842;2023-05-24T13:35:59;17.60;90.20
17697;DHT22;8967;47.984;7.842;2023-05-24T13:38:27;17.60;90.30
17697;DHT22;8967;47.984;7.842;2023-05-24T13:40:54;17.50;90.30
17697;DHT22;8967;47.984;7.842;2023-05-24T13:43:22;17.60;90.30
17697;DHT22;8967;47.984;7.842;2023-05-24T13:45:51;17.60;90.80
17697;DHT22;8967;47.984;7.842;2023-05-24T13:48:18;17.60;89.70
17697;DHT22;8967;47.984;7.842;2023-05-24T13:50:45;17.60;89.70
17697;DHT22;8967;47.984;7.842;2023-05-24T13:53:12;17.60;89.70
17697;DHT22;8967;47.984;7.842;2023-05-24T13:55:39;17.50;89.20
17697;DHT22;8967;47.984;7.842;2023-05-24T13:58:06;17.50;89.40
17697;DHT22;8967;47.984;7.842;2023-05-24T14:00:34;17.50;89.30
17697;DHT22;8967;47.984;7.842;2023-05-24T14:03:11;17.50;89.10
17697;DHT22;8967;47.984;7.842;2023-05-24T14:05:40;17.50;88.50
17697;DHT22;8967;47.984;7.842;2023-05-24T14:08:07;17.50;88.90
17697;DHT22;8967;47.984;7.842;2023-05-24T14:10:34;17.50;89.00
17697;DHT22;8967;47.984;7.842;2023-05-24T14:13:04;17.50;88.90
17697;DHT22;8967;47.984;7.842;2023-05-24T14:15:32;17.50;89.70
17697;DHT22;8967;47.984;7.842;2023-05-24T14:18:00;17.60;89.30
17697;DHT22;8967;47.984;7.842;2023-05-24T14:20:32;17.60;88.10
17697;DHT22;8967;47.984;7.842;2023-05-24T14:23:07;17.60;88.50
17697;DHT22;8967;47.984;7.842;2023-05-24T14:25:34;17.60;88.80
17697;DHT22;8967;47.984;7.842;2023-05-24T14:28:01;17.70;88.90
17697;DHT22;8967;47.984;7.842;2023-05-24T14:30:30;17.70;88.00
17697;DHT22;8967;47.984;7.842;2023-05-24T14:32:57;17.60;88.40
17697;DHT22;8967;47.984;7.842;2023-05-24T14:35:26;17.70;88.00
17697;DHT22;8967;47.984;7.842;2023-05-24T14:37:53;17.70;86.70
17697;DHT22;8967;47.984;7.842;2023-05-24T14:40:20;17.60;87.00
17697;DHT22;8967;47.984;7.842;2023-05-24T14:42:47;17.70;87.00
17697;DHT22;8967;47.984;7.842;2023-05-24T14:45:14;17.70;86.20
17697;DHT22;8967;47.984;7.842;2023-05-24T14:47:44;17.70;86.20
17697;DHT22;8967;47.984;7.842;2023-05-24T14:50:11;17.60;85.30
17697;DHT22;8967;47.984;7.842;2023-05-24T14:52:41;17.60;85.20
17697;DHT22;8967;47.984;7.842;2023-05-24T14:55:08;17.60;85.30
17697;DHT22;8967;47.984;7.842;2023-05-24T14:57:37;17.60;84.60
17697;DHT22;8967;47.984;7.842;2023-05-24T15:00:05;17.60;82.40
17697;DHT22;8967;47.984;7.842;2023-05-24T15:02:32;17.50;83.10
17697;DHT22;8967;47.984;7.842;2023-05-24T15:05:00;17.60;82.00
17697;DHT22;8967;47.984;7.842;2023-05-24T15:07:26;17.50;81.70
17697;DHT22;8967;47.984;7.842;2023-05-24T15:09:55;17.60;81.50
17697;DHT22;8967;47.984;7.842;2023-05-24T15:12:21;17.60;81.50
17697;DHT22;8967;47.984;7.842;2023-05-24T15:14:48;17.60;81.10
17697;DHT22;8967;47.984;7.842;2023-05-24T15:17:15;17.70;80.10
17697;DHT22;8967;47.984;7.842;2023-05-24T15:19:42;17.60;78.80
17697;DHT22;8967;47.984;7.842;2023-05-24T15:22:09;17.60;79.00
17697;DHT22;8967;47.984;7.842;2023-05-24T15:24:38;17.60;78.40
17697;DHT22;8967;47.984;7.842;2023-05-24T15:27:09;17.60;78.70
17697;DHT22;8967;47.984;7.842;2023-05-24T15:29:36;17.60;78.40
17697;DHT22;8967;47.984;7.842;2023-05-24T15:32:06;17.60;78.50
17697;DHT22;8967;47.984;7.842;2023-05-24T15:34:32;17.60;78.10
17697;DHT22;8967;47.984;7.842;2023-05-24T15:36:59;17.60;77.80
17697;DHT22;8967;47.984;7.842;2023-05-24T15:39:27;17.60;76.40
17697;DHT22;8967;47.984;7.842;2023-05-24T15:41:56;17.60;76.70
17697;DHT22;8967;47.984;7.842;2023-05-24T15:44:24;17.60;76.40
17697;DHT22;8967;47.984;7.842;2023-05-24T15:46:51;17.60;73.60
17697;DHT22;8967;47.984;7.842;2023-05-24T15:49:21;17.50;74.10
17697;DHT22;8967;47.984;7.842;2023-05-24T15:51:50;17.50;72.80